Time;durP1;ratioP1;P1;durP2;ratioP2;P2;SDS_P1;SDS_P2;PMS_P1;PMS_P2;Temp;Humidity;BMP_temperature;BMP_pressure;BME280_temperature;BME280_humidity;BME280_pressure;Samples;Min_cycle;Max_cycle;Signal;HPM_P1;HPM_P2
2023/07/05 00:00:33;;;;;;;6.57;4.20;;;20.70;99.90;;;;;;5012909;28;20724;-71
2023/07/05 00:02:59;;;;;;;4.73;3.30;;;20.80;99.90;;;;;;5013560;28;20651;-72
2023/07/05 00:05:25;;;;;;;3.10;2.80;;;20.90;99.90;;;;;;5013042;28;20188;-72
2023/07/05 00:07:50;;;;;;;3.30;3.00;;;21.00;99.90;;;;;;5013740;28;20811;-72
2023/07/05 00:10:16;;;;;;;3.40;2.63;;;21.10;99.90;;;;;;5012638;28;20223;-72
2023/07/05 00:12:42;;;;;;;6.27;3.00;;;21.20;99.90;;;;;;5013394;28;20165;-72
2023/07/05 00:15:08;;;;;;;3.60;2.90;;;21.20;99.90;;;;;;5013610;28;20178;-72
2023/07/05 00:17:35;;;;;;;3.80;2.90;;;21.20;99.90;;;;;;5012990;28;20176;-72
2023/07/05 00:20:02;;;;;;;3.20;2.90;;;21.20;99.90;;;;;;5012909;28;20490;-72
2023/07/05 00:22:28;;;;;;;5.17;3.33;;;21.20;99.90;;;;;;5013181;28;20522;-72
2023/07/05 00:24:55;;;;;;;3.90;2.83;;;21.00;99.90;;;;;;5012889;28;20407;-72
2023/07/05 00:27:22;;;;;;;3.90;3.43;;;20.90;99.90;;;;;;5013384;28;20426;-72
2023/07/05 00:29:49;;;;;;;5.63;3.30;;;20.80;99.90;;;;;;5013163;28;20423;-72
2023/07/05 00:32:14;;;;;;;3.50;3.20;;;20.70;99.90;;;;;;5013517;28;20431;-72
2023/07/05 00:34:40;;;;;;;4.07;2.73;;;20.70;99.90;;;;;;5012519;28;20433;-72
2023/07/05 00:37:06;;;;;;;5.83;3.63;;;20.60;99.90;;;;;;5013333;28;20164;-72
2023/07/05 00:39:31;;;;;;;4.67;3.30;;;20.50;99.90;;;;;;5015884;28;20184;-72
2023/07/05 00:41:57;;;;;;;5.73;3.30;;;20.40;99.90;;;;;;5013215;28;20240;-71
2023/07/05 00:44:23;;;;;;;4.93;2.87;;;20.50;99.90;;;;;;5013601;28;20156;-71
2023/07/05 00:46:55;;;;;;;3.53;2.67;;;20.50;99.90;;;;;;5013224;28;20196;-72
2023/07/05 00:49:24;;;;;;;3.50;3.07;;;20.50;99.90;;;;;;5012607;28;20667;-72
2023/07/05 00:51:59;;;;;;;6.93;2.90;;;20.50;99.90;;;;;;5013320;28;20469;-72
2023/07/05 00:54:35;;;;;;;3.57;3.23;;;20.40;99.90;;;;;;5013782;28;20398;-71
2023/07/05 00:57:17;;;;;;;3.50;3.17;;;20.40;99.90;;;;;;5013726;28;20747;-72
2023/07/05 01:00:12;;;;;;;4.67;2.80;;;20.40;99.90;;;;;;5012761;28;20976;-72
2023/07/05 01:02:40;;;;;;;3.10;2.80;;;20.40;99.90;;;;;;5012787;28;20408;-72
2023/07/05 01:05:08;;;;;;;2.90;2.70;;;20.30;99.90;;;;;;5011533;28;20458;-72
2023/07/05 01:07:34;;;;;;;3.60;2.67;;;20.30;99.90;;;;;;5012848;28;20426;-72
2023/07/05 01:10:00;;;;;;;3.47;2.50;;;20.40;99.90;;;;;;5013051;28;20427;-72
2023/07/05 01:12:41;;;;;;;2.93;2.40;;;20.30;99.90;;;;;;5013013;28;20411;-72
2023/07/05 01:15:09;;;;;;;2.73;2.27;;;20.30;99.90;;;;;;5012992;28;20383;-72
2023/07/05 01:17:52;;;;;;;3.27;2.30;;;20.40;99.90;;;;;;5012751;28;20413;-72
2023/07/05 01:20:30;;;;;;;2.50;2.30;;;20.50;99.90;;;;;;5012158;28;20561;-72
2023/07/05 01:23:31;;;;;;;3.10;2.70;;;20.50;99.90;;;;;;5016694;28;20394;-72
2023/07/05 01:26:12;;;;;;;4.90;2.80;;;20.60;99.90;;;;;;5016539;28;20480;-71
2023/07/05 01:28:38;;;;;;;2.90;2.70;;;20.60;99.90;;;;;;5016622;28;20481;-71
2023/07/05 01:33:52;;;;;;;2.57;2.37;;;20.50;99.90;;;;;;5151846;22;20696;-71
2023/07/05 01:36:19;;;;;;;4.13;2.47;;;20.40;99.90;;;;;;5015944;28;20818;-71
2023/07/05 01:38:44;;;;;;;2.40;2.20;;;20.40;99.90;;;;;;5016192;28;20398;-72
2023/07/05 01:41:10;;;;;;;3.53;2.53;;;20.40;99.90;;;;;;5016128;28;20399;-71
2023/07/05 01:43:39;;;;;;;3.37;2.20;;;20.50;99.90;;;;;;5014752;28;20183;-72
2023/07/05 01:46:24;;;;;;;2.80;1.90;;;20.50;99.90;;;;;;5014794;28;20192;-71
2023/07/05 01:49:27;;;;;;;2.40;1.83;;;20.40;99.90;;;;;;5016081;28;20959;-71
2023/07/05 01:52:02;;;;;;;4.83;2.10;;;20.40;99.90;;;;;;4949495;28;20438;-72
2023/07/05 01:54:58;;;;;;;4.00;1.87;;;20.40;99.90;;;;;;5015931;28;20382;-71
2023/07/05 01:57:40;;;;;;;1.87;1.67;;;20.30;99.90;;;;;;5016079;28;20729;-71
2023/07/05 02:00:10;;;;;;;2.80;2.00;;;20.30;99.90;;;;;;5015793;28;20409;-71
2023/07/05 02:02:42;;;;;;;2.97;2.17;;;20.30;99.90;;;;;;5015377;28;20493;-71
2023/07/05 02:05:09;;;;;;;2.53;2.30;;;20.30;99.90;;;;;;4996998;28;20465;-71
2023/07/05 02:07:35;;;;;;;2.57;2.20;;;20.30;99.90;;;;;;5015635;28;20842;-70
2023/07/05 02:10:01;;;;;;;3.00;2.10;;;20.30;99.90;;;;;;5015758;28;20435;-71
2023/07/05 02:12:27;;;;;;;1.97;1.80;;;20.30;99.90;;;;;;5015600;28;20430;-71
2023/07/05 02:14:53;;;;;;;2.30;1.97;;;20.40;99.90;;;;;;5015435;28;20410;-71
2023/07/05 02:17:19;;;;;;;3.70;2.50;;;20.40;99.90;;;;;;5015300;28;20777;-71
2023/07/05 02:19:46;;;;;;;5.03;2.50;;;20.60;99.90;;;;;;5015132;28;20179;-71
2023/07/05 02:22:11;;;;;;;4.00;2.80;;;20.50;99.90;;;;;;5015227;28;20949;-71
2023/07/05 02:24:37;;;;;;;2.23;2.00;;;20.60;99.90;;;;;;5015300;28;20441;-71
2023/07/05 02:27:03;;;;;;;3.10;1.70;;;20.60;99.90;;;;;;5015622;28;20195;-71
2023/07/05 02:29:30;;;;;;;2.40;1.90;;;20.70;99.90;;;;;;5014984;28;20164;-71
2023/07/05 02:31:57;;;;;;;2.73;1.90;;;20.80;99.90;;;;;;5015025;28;20482;-72
2023/07/05 02:34:22;;;;;;;3.17;2.30;;;21.00;99.90;;;;;;5014316;28;20423;-71
2023/07/05 02:36:48;;;;;;;3.30;2.10;;;21.00;99.90;;;;;;5015022;28;20936;-73
2023/07/05 02:39:14;;;;;;;3.20;2.20;;;21.00;99.90;;;;;;5015145;28;20542;-71
2023/07/05 02:41:39;;;;;;;2.77;1.90;;;21.00;99.90;;;;;;5017268;28;20645;-71
2023/07/05 02:44:05;;;;;;;5.00;2.90;;;21.10;99.90;;;;;;5015126;28;20173;-71
2023/07/05 02:46:31;;;;;;;3.97;2.87;;;21.20;99.90;;;;;;5014519;28;20529;-71
2023/07/05 02:48:57;;;;;;;5.00;2.47;;;21.00;99.90;;;;;;4997406;28;20218;-71
2023/07/05 02:51:29;;;;;;;2.53;2.33;;;21.10;99.90;;;;;;4997062;28;20407;-71
2023/07/05 02:53:55;;;;;;;2.47;2.27;;;21.10;99.90;;;;;;5014838;28;20423;-71
2023/07/05 02:56:21;;;;;;;5.03;2.57;;;21.10;99.90;;;;;;5014833;28;20411;-71
2023/07/05 02:58:47;;;;;;;2.57;2.10;;;21.00;99.90;;;;;;5014791;28;20499;-71
2023/07/05 03:01:12;;;;;;;3.90;1.70;;;20.90;99.90;;;;;;5014369;28;20511;-71
2023/07/05 03:03:38;;;;;;;1.77;1.67;;;20.80;99.90;;;;;;5014488;28;20192;-71
2023/07/05 03:06:04;;;;;;;2.00;1.80;;;20.80;99.90;;;;;;4996491;28;20231;-71
2023/07/05 03:08:30;;;;;;;4.90;1.97;;;20.80;99.90;;;;;;5013268;28;20775;-71
2023/07/05 03:10:57;;;;;;;1.93;1.73;;;20.50;99.90;;;;;;5013605;28;20399;-71
2023/07/05 03:13:27;;;;;;;2.60;1.90;;;20.40;99.90;;;;;;5014531;28;20469;-71
2023/07/05 03:15:53;;;;;;;4.43;2.33;;;20.40;99.90;;;;;;5014087;28;20549;-71
2023/07/05 03:18:18;;;;;;;3.00;1.80;;;20.60;99.90;;;;;;5014278;28;20928;-70
2023/07/05 03:20:46;;;;;;;2.27;2.07;;;20.70;99.90;;;;;;5014546;28;20255;-71
2023/07/05 03:23:12;;;;;;;3.23;1.67;;;20.80;99.90;;;;;;5014415;28;20281;-70
2023/07/05 03:25:38;;;;;;;3.80;1.60;;;20.90;99.90;;;;;;5014187;28;20584;-70
2023/07/05 03:28:04;;;;;;;4.27;2.67;;;20.90;99.90;;;;;;5014138;28;20450;-70
2023/07/05 03:30:31;;;;;;;2.93;2.13;;;20.80;99.90;;;;;;5013900;28;20235;-70
2023/07/05 03:32:56;;;;;;;2.20;2.03;;;20.70;99.90;;;;;;5013828;28;20564;-71
2023/07/05 03:35:22;;;;;;;3.47;2.20;;;20.70;99.90;;;;;;5013900;28;20414;-70
2023/07/05 03:37:47;;;;;;;2.37;1.97;;;20.50;99.90;;;;;;5013977;28;20224;-70
2023/07/05 03:40:13;;;;;;;2.80;1.97;;;20.40;99.90;;;;;;5013939;28;20222;-70
2023/07/05 03:42:38;;;;;;;3.33;2.23;;;20.20;99.90;;;;;;5013766;28;20275;-70
2023/07/05 03:45:04;;;;;;;2.20;2.00;;;20.10;99.90;;;;;;5013583;28;20254;-71
2023/07/05 03:47:30;;;;;;;3.13;2.27;;;20.20;99.90;;;;;;5014238;28;20537;-71
2023/07/05 03:49:56;;;;;;;2.77;2.30;;;20.20;99.90;;;;;;5013658;28;20260;-70
2023/07/05 03:52:22;;;;;;;2.30;2.10;;;20.00;99.90;;;;;;4995957;28;20653;-71
2023/07/05 03:54:48;;;;;;;1.90;1.80;;;20.00;99.90;;;;;;5013476;28;20624;-70
2023/07/05 03:57:14;;;;;;;3.90;1.97;;;20.00;99.90;;;;;;5013937;28;20399;-71
2023/07/05 03:59:39;;;;;;;3.10;1.93;;;19.90;99.90;;;;;;5006408;28;20255;-71
2023/07/05 04:02:05;;;;;;;2.60;2.40;;;19.80;99.90;;;;;;4992873;28;20542;-71
2023/07/05 04:04:31;;;;;;;2.80;2.60;;;19.70;99.90;;;;;;4994260;28;20168;-70
2023/07/05 04:06:56;;;;;;;2.67;2.10;;;19.50;99.90;;;;;;5010165;28;20776;-70
2023/07/05 04:09:22;;;;;;;2.20;1.80;;;19.50;99.90;;;;;;5013675;28;20180;-71
2023/07/05 04:11:48;;;;;;;2.60;2.20;;;19.50;99.90;;;;;;5013313;28;20642;-70
2023/07/05 04:14:13;;;;;;;3.27;2.30;;;19.50;99.90;;;;;;5013134;28;20171;-70
2023/07/05 04:16:39;;;;;;;3.03;1.80;;;19.50;99.90;;;;;;5013396;28;20230;-70
2023/07/05 04:19:04;;;;;;;3.70;2.10;;;19.50;99.90;;;;;;5014110;28;20677;-71
2023/07/05 04:21:30;;;;;;;2.50;2.20;;;19.60;99.90;;;;;;5013458;28;20168;-71
2023/07/05 04:23:56;;;;;;;2.40;2.20;;;19.60;99.90;;;;;;5012558;28;20235;-71
2023/07/05 04:26:25;;;;;;;2.30;2.10;;;19.70;99.90;;;;;;5012108;28;20271;-70
2023/07/05 04:28:51;;;;;;;3.50;1.90;;;19.70;99.90;;;;;;5012537;28;20180;-70
2023/07/05 04:31:23;;;;;;;3.23;2.30;;;19.60;99.90;;;;;;5013106;28;20773;-70
2023/07/05 04:33:49;;;;;;;2.43;2.07;;;19.50;99.90;;;;;;5013076;28;20524;-71
2023/07/05 04:36:14;;;;;;;2.33;1.83;;;19.50;99.90;;;;;;5012725;28;20411;-71
2023/07/05 04:38:40;;;;;;;5.50;2.40;;;19.50;99.90;;;;;;5013280;28;20180;-70
2023/07/05 04:41:06;;;;;;;2.93;2.30;;;19.40;99.90;;;;;;5013290;28;20514;-70
2023/07/05 04:43:31;;;;;;;2.73;2.10;;;19.40;99.90;;;;;;5014930;23;20248;-71
2023/07/05 04:45:58;;;;;;;2.97;1.90;;;19.50;99.90;;;;;;4992003;28;20188;-72
2023/07/05 04:48:25;;;;;;;2.57;2.17;;;19.50;99.90;;;;;;4992218;28;20235;-72
2023/07/05 04:50:52;;;;;;;2.03;1.80;;;19.40;99.90;;;;;;4992464;28;20503;-72
2023/07/05 04:53:22;;;;;;;4.63;2.20;;;19.40;99.90;;;;;;4990238;28;20511;-71
2023/07/05 04:55:49;;;;;;;2.90;2.00;;;19.40;99.90;;;;;;4993718;28;20462;-72
2023/07/05 04:58:15;;;;;;;3.00;2.13;;;19.30;99.90;;;;;;4979573;28;20407;-71
2023/07/05 05:00:46;;;;;;;3.27;2.40;;;19.30;99.90;;;;;;4997084;28;20436;-72
2023/07/05 05:03:13;;;;;;;3.80;1.97;;;19.30;99.90;;;;;;4997174;28;20528;-71
2023/07/05 05:05:39;;;;;;;2.83;2.10;;;19.40;99.90;;;;;;4996015;28;20459;-71
2023/07/05 05:08:04;;;;;;;2.30;2.10;;;19.50;99.90;;;;;;4996923;28;20773;-71
2023/07/05 05:10:30;;;;;;;2.00;1.80;;;19.60;99.90;;;;;;4996751;28;20176;-71
2023/07/05 05:12:55;;;;;;;3.20;2.37;;;19.70;99.90;;;;;;4996749;28;20572;-72
2023/07/05 05:15:21;;;;;;;5.17;2.33;;;19.60;99.90;;;;;;4979159;28;20677;-72
2023/07/05 05:17:46;;;;;;;2.67;1.93;;;19.70;99.90;;;;;;4997076;28;20571;-72
2023/07/05 05:20:12;;;;;;;2.40;2.00;;;19.80;99.90;;;;;;4996763;28;20712;-72
2023/07/05 05:22:38;;;;;;;2.50;2.17;;;19.80;99.90;;;;;;4996662;28;20635;-71
2023/07/05 05:25:04;;;;;;;2.83;2.03;;;19.70;99.90;;;;;;4996443;28;20185;-72
2023/07/05 05:27:29;;;;;;;4.83;2.10;;;19.80;99.90;;;;;;4979203;28;20404;-72
2023/07/05 05:29:55;;;;;;;2.70;2.00;;;20.00;99.90;;;;;;4996402;28;20404;-73
2023/07/05 05:32:20;;;;;;;2.30;2.10;;;20.20;99.90;;;;;;4996846;28;20177;-72
2023/07/05 05:34:46;;;;;;;1.70;1.60;;;20.20;99.90;;;;;;4996955;28;20192;-73
2023/07/05 05:37:11;;;;;;;2.90;2.10;;;20.20;99.90;;;;;;4996256;28;20196;-73
2023/07/05 05:39:37;;;;;;;2.00;1.80;;;20.30;99.90;;;;;;4996435;28;20173;-72
2023/07/05 05:42:03;;;;;;;3.03;2.50;;;20.30;99.90;;;;;;4996343;28;20255;-73
2023/07/05 05:44:28;;;;;;;6.30;2.27;;;20.40;99.90;;;;;;4991408;28;20208;-73
2023/07/05 05:46:54;;;;;;;2.20;2.00;;;20.40;99.90;;;;;;4986190;28;20189;-73
2023/07/05 05:49:19;;;;;;;2.13;1.93;;;20.50;99.90;;;;;;4996094;28;20176;-72
2023/07/05 05:51:45;;;;;;;3.43;2.07;;;20.60;99.90;;;;;;4995795;28;20169;-72
2023/07/05 05:54:11;;;;;;;2.97;2.07;;;20.70;99.90;;;;;;4995457;28;20200;-73
2023/07/05 05:56:36;;;;;;;6.40;2.67;;;20.90;99.90;;;;;;4996211;28;20173;-72
2023/07/05 05:59:02;;;;;;;2.70;2.00;;;21.00;99.90;;;;;;4995893;28;20228;-72
2023/07/05 06:01:28;;;;;;;2.20;2.00;;;21.20;99.90;;;;;;4995962;28;20165;-72
2023/07/05 06:03:54;;;;;;;3.20;1.87;;;21.40;99.90;;;;;;4995959;28;20438;-72
2023/07/05 06:06:19;;;;;;;2.50;2.10;;;21.60;99.90;;;;;;4994973;28;20239;-73
2023/07/05 06:08:45;;;;;;;2.90;2.00;;;21.90;99.90;;;;;;4994837;28;20173;-73
2023/07/05 06:11:10;;;;;;;3.60;2.47;;;22.10;99.90;;;;;;4995788;28;20272;-72
2023/07/05 06:13:36;;;;;;;4.10;2.40;;;22.00;99.90;;;;;;4996197;28;20276;-73
2023/07/05 06:16:03;;;;;;;2.67;2.43;;;21.90;99.90;;;;;;4995549;28;20231;-72
2023/07/05 06:18:29;;;;;;;3.20;2.67;;;21.90;99.90;;;;;;4977819;28;20173;-74
2023/07/05 06:20:55;;;;;;;4.97;2.40;;;21.80;99.90;;;;;;4977764;28;20977;-72
2023/07/05 06:23:21;;;;;;;3.20;1.90;;;21.80;99.90;;;;;;4995499;28;20196;-70
2023/07/05 06:25:48;;;;;;;3.30;2.80;;;21.70;99.90;;;;;;4995818;28;20497;-72
2023/07/05 06:28:17;;;;;;;3.03;2.33;;;21.80;99.90;;;;;;4995664;28;20404;-71
2023/07/05 06:30:47;;;;;;;3.47;2.17;;;21.80;99.90;;;;;;4977512;28;20408;-71
2023/07/05 06:33:14;;;;;;;2.30;2.10;;;22.00;99.90;;;;;;4986569;28;20500;-72
2023/07/05 06:35:40;;;;;;;3.00;2.10;;;22.10;99.90;;;;;;4986633;28;20891;-72
2023/07/05 06:38:05;;;;;;;3.10;2.80;;;22.10;99.90;;;;;;4985755;28;20495;-73
2023/07/05 06:40:31;;;;;;;4.00;2.67;;;22.40;99.90;;;;;;4966544;28;20670;-72
2023/07/05 06:42:58;;;;;;;2.43;2.23;;;22.50;99.90;;;;;;5000401;28;20544;-72
2023/07/05 06:45:23;;;;;;;4.43;2.90;;;22.20;99.90;;;;;;4982977;28;20758;-73
2023/07/05 06:47:50;;;;;;;5.33;2.50;;;22.10;99.90;;;;;;4982290;28;20491;-73
2023/07/05 06:50:16;;;;;;;5.77;3.03;;;21.80;99.90;;;;;;4994977;28;20248;-73
2023/07/05 06:52:41;;;;;;;3.27;2.80;;;21.70;99.90;;;;;;4994380;28;20400;-73
2023/07/05 06:55:07;;;;;;;5.70;2.80;;;21.40;99.90;;;;;;4994485;28;20458;-74
2023/07/05 06:57:33;;;;;;;3.77;2.47;;;20.90;99.90;;;;;;4994804;28;20244;-72
2023/07/05 06:59:58;;;;;;;5.40;2.83;;;20.80;99.90;;;;;;4994771;28;20169;-72
2023/07/05 07:02:24;;;;;;;4.33;3.30;;;20.60;99.90;;;;;;4995149;28;20164;-74
2023/07/05 07:04:50;;;;;;;6.60;3.10;;;20.50;99.90;;;;;;4994589;28;20196;-72
2023/07/05 07:07:15;;;;;;;5.23;2.93;;;20.20;99.90;;;;;;4994864;28;20272;-72
2023/07/05 07:09:41;;;;;;;2.63;2.40;;;20.00;99.90;;;;;;4994751;28;20168;-73
2023/07/05 07:12:08;;;;;;;3.70;2.83;;;20.10;99.90;;;;;;4994663;28;20658;-74
2023/07/05 07:14:33;;;;;;;3.87;2.70;;;19.90;99.90;;;;;;4976797;28;20270;-73
2023/07/05 07:16:59;;;;;;;3.43;3.03;;;20.00;99.90;;;;;;4994546;28;20851;-73
2023/07/05 07:19:25;;;;;;;4.53;2.73;;;20.20;99.90;;;;;;4993528;28;20662;-74
2023/07/05 07:21:51;;;;;;;6.60;3.40;;;20.20;99.90;;;;;;4994260;28;20173;-74
2023/07/05 07:24:17;;;;;;;4.20;2.93;;;20.30;99.90;;;;;;4994304;28;20188;-73
2023/07/05 07:26:42;;;;;;;4.73;3.07;;;20.50;99.90;;;;;;4994367;28;20451;-74
2023/07/05 07:29:10;;;;;;;5.30;2.80;;;20.60;99.90;;;;;;4976776;28;20177;-74
2023/07/05 07:31:35;;;;;;;4.90;2.70;;;20.60;99.90;;;;;;4976388;28;20172;-76
2023/07/05 07:34:02;;;;;;;5.13;3.20;;;20.90;99.90;;;;;;4993926;28;20442;-72
2023/07/05 07:36:30;;;;;;;3.77;2.50;;;20.90;99.90;;;;;;4993981;28;20196;-72
2023/07/05 07:38:57;;;;;;;1.97;1.87;;;21.10;99.90;;;;;;4994292;28;20776;-75
2023/07/05 07:41:27;;;;;;;4.17;2.50;;;21.00;99.90;;;;;;4994318;28;20439;-74
2023/07/05 07:43:55;;;;;;;4.30;2.93;;;21.20;99.90;;;;;;4993790;28;20879;-74
2023/07/05 07:46:23;;;;;;;2.93;2.20;;;21.70;99.90;;;;;;4993754;28;20449;-76
2023/07/05 07:48:51;;;;;;;2.67;2.23;;;22.10;99.90;;;;;;4993936;28;20412;-71
2023/07/05 07:51:19;;;;;;;3.57;2.40;;;22.20;99.90;;;;;;4977061;28;20415;-71
2023/07/05 07:53:44;;;;;;;3.23;2.20;;;22.20;99.90;;;;;;4993698;28;20462;-71
2023/07/05 07:56:15;;;;;;;4.93;2.60;;;21.90;99.90;;;;;;4993804;28;20432;-72
2023/07/05 07:58:41;;;;;;;2.90;2.03;;;21.80;99.90;;;;;;4993796;28;20157;-75
2023/07/05 08:01:19;;;;;;;2.70;1.70;;;21.50;99.90;;;;;;4993348;28;20404;-74
2023/07/05 08:03:45;;;;;;;1.93;1.63;;;21.10;99.90;;;;;;4993444;28;20431;-73
2023/07/05 08:06:11;;;;;;;4.13;1.80;;;21.00;99.90;;;;;;4993842;28;20809;-76
2023/07/05 08:08:38;;;;;;;2.20;2.00;;;21.00;99.90;;;;;;4995312;28;20193;-71
2023/07/05 08:11:05;;;;;;;4.07;1.90;;;20.80;99.90;;;;;;4993518;28;20427;-75
2023/07/05 08:13:31;;;;;;;2.57;1.60;;;20.30;99.90;;;;;;4993562;28;20945;-71
2023/07/05 08:15:58;;;;;;;1.73;1.50;;;19.90;99.90;;;;;;4993225;28;20777;-74
2023/07/05 08:18:23;;;;;;;2.30;1.70;;;19.80;99.90;;;;;;4993371;28;20414;-71
2023/07/05 08:20:49;;;;;;;1.83;1.67;;;19.80;99.90;;;;;;4993271;28;20408;-72
2023/07/05 08:23:15;;;;;;;2.10;1.87;;;19.60;99.90;;;;;;4993316;28;20185;-76
2023/07/05 08:25:42;;;;;;;2.03;1.80;;;19.70;99.90;;;;;;4993216;28;20271;-76
2023/07/05 08:28:08;;;;;;;2.57;2.00;;;19.90;99.90;;;;;;4975811;28;20223;-76
2023/07/05 08:30:34;;;;;;;2.17;1.97;;;20.00;99.90;;;;;;4992506;28;20404;-76
2023/07/05 08:33:02;;;;;;;2.43;1.77;;;19.90;99.90;;;;;;4993434;28;20755;-74
2023/07/05 08:35:27;;;;;;;3.27;1.77;;;19.90;99.90;;;;;;4993208;28;20517;-73
2023/07/05 08:37:53;;;;;;;2.20;2.00;;;20.00;99.90;;;;;;4993279;28;20412;-73
2023/07/05 08:40:18;;;;;;;2.97;2.00;;;20.10;99.90;;;;;;4993196;28;20176;-74
2023/07/05 08:42:58;;;;;;;3.77;1.90;;;19.90;99.90;;;;;;4993150;28;20309;-74
2023/07/05 08:45:31;;;;;;;3.07;2.10;;;20.10;99.90;;;;;;4993202;28;20196;-73
2023/07/05 08:48:02;;;;;;;1.93;1.60;;;20.30;99.90;;;;;;4993144;28;20416;-72
2023/07/05 08:50:38;;;;;;;1.73;1.43;;;20.50;99.90;;;;;;4992679;28;20396;-74
2023/07/05 08:53:10;;;;;;;2.70;1.60;;;20.50;99.90;;;;;;4976074;28;20784;-74
2023/07/05 08:56:01;;;;;;;2.40;1.87;;;20.60;99.90;;;;;;4993698;28;20416;-73
2023/07/05 08:58:40;;;;;;;2.57;1.87;;;20.60;99.90;;;;;;4992379;28;20420;-74
2023/07/05 09:01:23;;;;;;;1.70;1.60;;;20.80;99.90;;;;;;4975112;28;20408;-76
2023/07/05 09:03:48;;;;;;;3.90;1.90;;;21.10;99.90;;;;;;4993705;28;20497;-73
2023/07/05 09:06:17;;;;;;;2.00;1.70;;;20.90;99.90;;;;;;4992755;28;20558;-73
2023/07/05 09:08:50;;;;;;;4.10;1.83;;;21.00;99.90;;;;;;4993068;28;20173;-74
2023/07/05 09:11:33;;;;;;;2.80;2.17;;;21.10;99.90;;;;;;4993708;28;20387;-73
2023/07/05 09:14:26;;;;;;;4.27;2.40;;;21.10;99.90;;;;;;4993113;28;20455;-72
2023/07/05 09:17:04;;;;;;;4.53;2.40;;;21.30;99.90;;;;;;4975424;28;20457;-74
2023/07/05 09:19:39;;;;;;;2.67;2.13;;;21.50;99.90;;;;;;4993146;28;20426;-75
2023/07/05 09:22:08;;;;;;;3.10;2.73;;;21.50;99.90;;;;;;4975342;28;20442;-73
2023/07/05 09:24:39;;;;;;;3.30;2.10;;;21.50;99.90;;;;;;4975117;28;20427;-71
2023/07/05 09:27:22;;;;;;;2.80;2.33;;;21.80;99.90;;;;;;4992633;28;20432;-72
2023/07/05 09:29:56;;;;;;;2.30;2.10;;;21.70;99.90;;;;;;4992660;28;20435;-72
2023/07/05 09:32:32;;;;;;;4.83;2.90;;;21.30;99.90;;;;;;4992736;28;20760;-73
2023/07/05 09:34:59;;;;;;;2.80;2.47;;;21.20;99.90;;;;;;4992795;28;20416;-73
2023/07/05 09:37:34;;;;;;;2.17;1.97;;;21.50;99.90;;;;;;4992527;28;20427;-74
2023/07/05 09:40:17;;;;;;;2.53;2.33;;;21.90;99.90;;;;;;4992900;28;20415;-72
2023/07/05 09:42:51;;;;;;;3.73;2.70;;;21.90;99.90;;;;;;4994618;28;20380;-73
2023/07/05 09:45:17;;;;;;;2.63;2.27;;;22.10;99.90;;;;;;4996251;28;20489;-69
2023/07/05 09:47:46;;;;;;;3.50;2.70;;;22.00;99.90;;;;;;4996241;28;20399;-69
2023/07/05 09:50:18;;;;;;;3.40;2.80;;;21.90;99.90;;;;;;4996000;28;20404;-69
2023/07/05 09:52:59;;;;;;;3.33;2.50;;;21.90;99.90;;;;;;4995528;28;20412;-69
2023/07/05 09:55:28;;;;;;;2.77;2.40;;;22.10;99.90;;;;;;4996204;28;20915;-68
2023/07/05 09:57:54;;;;;;;4.37;3.07;;;22.30;99.90;;;;;;4995676;28;20427;-69
2023/07/05 10:00:35;;;;;;;3.10;2.63;;;22.50;99.90;;;;;;4995419;28;20404;-69
2023/07/05 10:03:12;;;;;;;3.17;2.77;;;22.70;99.90;;;;;;4995842;28;20264;-69
2023/07/05 10:05:38;;;;;;;3.07;2.77;;;22.70;99.90;;;;;;4994712;28;20448;-66
2023/07/05 10:08:15;;;;;;;3.40;3.10;;;22.70;99.90;;;;;;4995946;28;20480;-68
2023/07/05 10:10:41;;;;;;;2.97;2.67;;;22.60;99.90;;;;;;4996348;28;20754;-68
2023/07/05 10:13:19;;;;;;;4.20;3.20;;;22.50;99.90;;;;;;4995427;28;20404;-67
2023/07/05 10:15:57;;;;;;;3.50;3.20;;;22.70;99.60;;;;;;4995441;28;20165;-67
2023/07/05 10:18:32;;;;;;;2.57;2.37;;;23.00;99.00;;;;;;4995708;28;20434;-67
2023/07/05 10:21:02;;;;;;;3.30;2.63;;;23.00;97.70;;;;;;4995766;28;20387;-68
2023/07/05 10:23:30;;;;;;;3.17;2.87;;;22.90;97.70;;;;;;4995710;28;20469;-68
2023/07/05 10:26:01;;;;;;;4.00;3.00;;;23.20;97.80;;;;;;4995621;28;20571;-68
2023/07/05 10:28:29;;;;;;;3.47;2.87;;;23.50;97.30;;;;;;4995293;28;20459;-68
2023/07/05 10:30:56;;;;;;;4.90;3.23;;;23.50;98.70;;;;;;4995075;28;20746;-70
2023/07/05 10:33:28;;;;;;;3.60;3.27;;;23.20;98.50;;;;;;4995498;28;20432;-68
2023/07/05 10:36:04;;;;;;;3.60;3.30;;;23.10;98.80;;;;;;4995210;28;20431;-68
2023/07/05 10:38:47;;;;;;;3.97;3.60;;;23.10;97.30;;;;;;4995296;28;20437;-68
2023/07/05 10:41:31;;;;;;;3.80;3.10;;;23.00;96.20;;;;;;4994930;28;20416;-69
2023/07/05 10:44:18;;;;;;;4.80;3.20;;;23.10;94.20;;;;;;4994679;23;20509;-70
2023/07/05 10:46:46;;;;;;;4.00;3.10;;;23.20;94.00;;;;;;4994192;28;20455;-69
2023/07/05 10:49:15;;;;;;;3.63;3.30;;;23.30;94.50;;;;;;4977689;28;20884;-71
2023/07/05 10:51:48;;;;;;;3.57;2.90;;;23.30;92.60;;;;;;4994593;28;20427;-70
2023/07/05 10:54:54;;;;;;;3.60;3.17;;;23.70;90.50;;;;;;4993204;28;20458;-69
2023/07/05 10:57:34;;;;;;;3.20;2.90;;;23.80;87.80;;;;;;4945101;28;20824;-69
2023/07/05 11:00:37;;;;;;;3.60;3.30;;;24.10;90.20;;;;;;4976978;28;20757;-70
2023/07/05 11:03:44;;;;;;;3.40;3.03;;;24.00;88.70;;;;;;4994303;28;20402;-70
2023/07/05 11:06:11;;;;;;;4.83;3.47;;;24.00;90.60;;;;;;4993786;28;20452;-70
2023/07/05 11:08:39;;;;;;;4.23;3.13;;;24.40;90.10;;;;;;4995075;28;20918;-71
2023/07/05 11:11:16;;;;;;;3.70;3.10;;;24.50;88.10;;;;;;4994382;28;20502;-70
2023/07/05 11:13:44;;;;;;;4.00;3.20;;;24.30;89.50;;;;;;4994821;28;20423;-70
2023/07/05 11:16:19;;;;;;;3.80;3.40;;;24.50;87.10;;;;;;4994270;28;20423;-70
2023/07/05 11:18:46;;;;;;;4.20;3.70;;;24.70;87.00;;;;;;4994598;28;20882;-70
2023/07/05 11:21:33;;;;;;;3.60;3.07;;;24.60;88.90;;;;;;4994255;28;20505;-68
2023/07/05 11:23:59;;;;;;;3.93;3.10;;;24.80;88.90;;;;;;4994165;28;20430;-70
2023/07/05 11:26:37;;;;;;;3.73;3.30;;;25.00;84.40;;;;;;4994359;28;20455;-71
2023/07/05 11:29:25;;;;;;;3.90;3.50;;;25.10;83.20;;;;;;4994125;28;20168;-70
2023/07/05 11:31:53;;;;;;;4.30;3.90;;;25.00;84.80;;;;;;4993980;28;20406;-70
2023/07/05 11:34:24;;;;;;;3.50;3.20;;;25.20;84.80;;;;;;4994121;28;20902;-70
2023/07/05 11:37:00;;;;;;;3.77;3.20;;;25.70;83.00;;;;;;4993649;28;20423;-69
2023/07/05 11:39:43;;;;;;;3.43;3.10;;;25.90;80.80;;;;;;4994936;28;20737;-69
2023/07/05 11:42:15;;;;;;;4.07;3.67;;;27.00;78.40;;;;;;4993963;28;20910;-71
2023/07/05 11:44:44;;;;;;;3.20;2.90;;;28.30;74.10;;;;;;4993969;28;20440;-70
2023/07/05 11:47:30;;;;;;;3.80;3.43;;;28.30;71.80;;;;;;4993533;28;20845;-70
2023/07/05 11:50:02;;;;;;;3.30;3.00;;;29.00;68.60;;;;;;4976546;28;20416;-71
2023/07/05 11:52:29;;;;;;;3.37;3.07;;;29.90;62.90;;;;;;4976270;28;20412;-71
2023/07/05 11:55:26;;;;;;;4.40;3.00;;;30.00;63.40;;;;;;4994020;28;20423;-70
2023/07/05 11:57:57;;;;;;;4.00;2.97;;;30.00;62.60;;;;;;4993920;28;20436;-70
2023/07/05 12:00:35;;;;;;;6.73;3.17;;;29.80;60.60;;;;;;4993477;28;20403;-70
2023/07/05 12:03:20;;;;;;;3.53;3.23;;;29.30;62.40;;;;;;4993844;28;20399;-69
2023/07/05 12:06:13;;;;;;;4.60;3.37;;;28.90;61.30;;;;;;4992517;28;20547;-70
2023/07/05 12:08:44;;;;;;;4.60;3.43;;;29.70;61.20;;;;;;4993712;28;20412;-69
2023/07/05 12:11:12;;;;;;;4.43;3.53;;;29.60;60.30;;;;;;4994224;28;20471;-70
2023/07/05 12:13:38;;;;;;;3.87;3.00;;;29.60;60.20;;;;;;4993428;28;20428;-70
2023/07/05 12:16:07;;;;;;;3.60;2.70;;;29.60;61.20;;;;;;4975894;28;20428;-71
2023/07/05 12:18:33;;;;;;;2.90;2.53;;;29.90;57.30;;;;;;4993359;28;20176;-70
2023/07/05 12:21:04;;;;;;;3.50;2.40;;;28.90;56.00;;;;;;4993394;28;20412;-71
2023/07/05 12:23:33;;;;;;;3.30;3.00;;;28.70;56.40;;;;;;4993444;28;20396;-70
2023/07/05 12:26:02;;;;;;;3.60;2.20;;;28.00;57.70;;;;;;4975816;28;20494;-69
2023/07/05 12:28:30;;;;;;;2.87;2.67;;;28.00;59.40;;;;;;4993276;28;20404;-69
2023/07/05 12:31:11;;;;;;;3.13;2.80;;;28.50;57.80;;;;;;4993059;28;20822;-71
2023/07/05 12:33:37;;;;;;;5.47;2.60;;;27.80;59.00;;;;;;4975521;28;20427;-70
2023/07/05 12:36:09;;;;;;;4.00;2.63;;;26.60;60.40;;;;;;4992708;28;20419;-69
2023/07/05 12:38:35;;;;;;;4.67;2.93;;;26.40;61.20;;;;;;4993381;28;20408;-69
2023/07/05 12:41:02;;;;;;;4.13;2.70;;;27.10;59.40;;;;;;4992771;28;20407;-69
2023/07/05 12:43:29;;;;;;;2.90;2.30;;;28.30;58.50;;;;;;4993167;28;20475;-69
2023/07/05 12:46:06;;;;;;;4.03;3.20;;;28.80;57.40;;;;;;4993319;28;20519;-70
2023/07/05 12:48:32;;;;;;;4.50;2.60;;;29.10;57.10;;;;;;4993027;28;20380;-69
2023/07/05 12:51:26;;;;;;;2.63;2.43;;;29.50;56.30;;;;;;4992768;28;20835;-71
2023/07/05 12:53:59;;;;;;;3.10;2.50;;;29.80;55.50;;;;;;4990017;28;20207;-70
2023/07/05 12:56:36;;;;;;;2.50;2.30;;;29.60;54.20;;;;;;4993566;28;20833;-69
2023/07/05 12:59:06;;;;;;;5.47;2.67;;;29.30;54.80;;;;;;4992927;28;20411;-69
2023/07/05 13:01:35;;;;;;;2.90;2.43;;;30.10;54.30;;;;;;4992238;28;20909;-69
2023/07/05 13:04:07;;;;;;;6.17;3.07;;;30.40;52.20;;;;;;4993186;28;20458;-70